Time;durP1;ratioP1;P1;durP2;ratioP2;P2;SDS_P1;SDS_P2;PMS_P1;PMS_P2;Temp;Humidity;BMP_temperature;BMP_pressure;BME280_temperature;BME280_humidity;BME280_pressure;Samples;Min_cycle;Max_cycle;Signal;HPM_P1;HPM_P2
2022/08/15 03:51:40;;;;;;;9.43;5.80;;;;;;;20.05;75.37;99517.41;6518029;26;20111;31
2022/08/15 03:54:46;;;;;;;7.35;5.15;;;;;;;20.01;75.41;99530.75;6572202;27;34279;-88
2022/08/15 03:57:53;;;;;;;8.45;5.22;;;;;;;20.00;75.10;99537.28;6572828;27;35473;-89
2022/08/15 04:01:17;;;;;;;10.15;5.70;;;;;;;19.98;75.02;99542.22;6573062;27;35000;-86
2022/08/15 04:04:20;;;;;;;9.18;5.95;;;;;;;19.99;75.53;99532.91;6573150;27;35390;-86
2022/08/15 04:07:23;;;;;;;11.05;5.70;;;;;;;19.98;75.76;99534.00;6571935;27;35326;-85
2022/08/15 04:10:26;;;;;;;10.18;5.80;;;;;;;19.99;75.92;99532.91;6558687;27;33644;-85
2022/08/15 04:13:41;;;;;;;10.60;5.90;;;;;;;19.97;76.34;99532.34;6553750;27;34949;-86
2022/08/15 04:16:49;;;;;;;12.35;6.35;;;;;;;19.94;77.02;99539.16;6553782;27;35339;-87
2022/08/15 04:20:08;;;;;;;10.20;5.80;;;;;;;19.97;76.45;99545.19;6553541;27;34410;-87
2022/08/15 04:23:31;;;;;;;9.65;5.85;;;;;;;20.00;76.43;99542.75;6535390;27;33544;-87
2022/08/15 04:26:35;;;;;;;9.40;6.12;;;;;;;20.05;76.09;99544.72;6555444;27;34148;-87
2022/08/15 04:29:39;;;;;;;9.95;6.12;;;;;;;20.11;75.91;99536.28;6553427;27;33916;-86
2022/08/15 04:32:44;;;;;;;10.13;6.37;;;;;;;20.20;75.78;99528.44;6553215;27;34462;-87
2022/08/15 04:36:12;;;;;;;8.77;5.95;;;;;;;20.29;75.70;99529.59;6551168;27;35447;-87
2022/08/15 04:39:21;;;;;;;9.85;5.57;;;;;;;20.37;75.33;99528.28;6553424;27;34228;-86
2022/08/15 04:42:28;;;;;;;13.40;5.75;;;;;;;20.52;73.67;99531.13;6553322;27;34509;-86
2022/08/15 04:45:34;;;;;;;11.77;5.75;;;;;;;20.70;72.90;99527.13;6533690;27;32437;-90
2022/08/15 04:48:37;;;;;;;9.88;5.93;;;;;;;20.88;72.11;99535.97;6533920;27;33093;-90
2022/08/15 04:51:40;;;;;;;11.38;6.20;;;;;;;21.06;71.12;99536.34;6553028;27;33684;-90
2022/08/15 04:54:45;;;;;;;8.90;5.60;;;;;;;21.22;70.67;99537.22;6552941;27;34651;-87
2022/08/15 04:58:03;;;;;;;9.93;5.87;;;;;;;21.42;69.77;99532.94;6553876;27;33907;-87
2022/08/15 05:01:27;;;;;;;9.95;5.25;;;;;;;21.60;68.91;99532.41;6533390;27;33535;-87
2022/08/15 05:04:49;;;;;;;8.85;5.30;;;;;;;21.76;68.21;99526.97;6552708;27;34010;-87
2022/08/15 05:07:53;;;;;;;7.47;5.28;;;;;;;21.98;67.31;99521.22;6533507;27;34414;-87
2022/08/15 05:11:05;;;;;;;7.87;5.28;;;;;;;22.11;66.69;99521.50;6553366;27;34401;-85
2022/08/15 05:14:07;;;;;;;9.45;4.80;;;;;;;22.28;66.07;99517.66;6553090;27;34327;-85
2022/08/15 05:17:30;;;;;;;12.48;4.75;;;;;;;22.40;65.22;99527.25;6557398;27;34275;-84
2022/08/15 05:20:55;;;;;;;7.82;4.93;;;;;;;22.52;63.86;99526.97;6559574;27;33704;-84
2022/08/15 05:24:01;;;;;;;7.50;5.25;;;;;;;22.65;64.18;99514.59;6558169;27;34841;-84
2022/08/15 05:27:06;;;;;;;8.68;5.60;;;;;;;22.76;63.85;99512.66;6535906;27;32663;-85
2022/08/15 05:30:12;;;;;;;7.68;5.50;;;;;;;22.89;63.28;99513.97;6555490;27;34352;-85
2022/08/15 05:33:28;;;;;;;9.15;4.97;;;;;;;23.04;62.95;99511.16;6537859;27;34084;-86
2022/08/15 05:36:51;;;;;;;9.50;5.35;;;;;;;23.22;61.71;99518.75;6555008;27;34034;-86
2022/08/15 05:39:55;;;;;;;8.93;5.43;;;;;;;23.36;61.37;99515.41;6553782;27;34949;-84
2022/08/15 05:43:09;;;;;;;10.27;6.10;;;;;;;23.53;61.09;99515.84;6553271;27;33898;-84
2022/08/15 05:46:31;;;;;;;7.97;5.30;;;;;;;23.90;59.50;99517.28;6554143;27;35222;-84
2022/08/15 05:49:51;;;;;;;8.68;5.10;;;;;;;24.26;58.37;99525.22;6546336;27;33204;-86
2022/08/15 05:53:05;;;;;;;13.73;5.55;;;;;;;24.43;57.78;99525.62;6551446;27;34805;-84
2022/08/15 05:56:10;;;;;;;8.23;5.28;;;;;;;24.54;56.00;99524.44;6570767;27;33989;-84
2022/08/15 05:59:34;;;;;;;16.60;5.20;;;;;;;24.64;55.97;99523.50;6558483;27;34164;-85
2022/08/15 06:02:42;;;;;;;10.48;5.10;;;;;;;24.62;55.76;99520.19;6552152;27;34375;-84
2022/08/15 06:05:59;;;;;;;8.77;4.70;;;;;;;24.74;54.65;99526.13;6553558;27;34343;-84
2022/08/15 06:09:47;;;;;;;39.30;6.72;;;;;;;24.93;54.79;99519.84;6553678;27;33872;-85
2022/08/15 06:13:08;;;;;;;7.25;4.78;;;;;;;25.04;53.64;99524.94;6533880;27;33925;-84
2022/08/15 06:16:23;;;;;;;7.60;4.40;;;;;;;25.35;51.68;99521.81;6561103;27;34013;-85
2022/08/15 06:19:50;;;;;;;8.82;4.62;;;;;;;25.56;51.25;99520.41;6560981;27;33913;-85
2022/08/15 06:23:15;;;;;;;5.35;4.45;;;;;;;25.61;51.19;99525.00;6563616;27;35199;-86
2022/08/15 06:26:31;;;;;;;9.10;4.68;;;;;;;25.82;50.54;99517.28;6558847;27;34295;-85
2022/08/15 06:29:57;;;;;;;5.35;4.05;;;;;;;26.07;50.44;99529.03;6551952;27;34174;-85
2022/08/15 06:33:16;;;;;;;7.70;4.95;;;;;;;26.24;49.37;99527.34;6552388;27;34003;-84
2022/08/15 06:36:30;;;;;;;7.43;4.68;;;;;;;25.90;50.21;99522.13;6553029;27;33785;-86
2022/08/15 06:40:11;;;;;;;8.15;5.40;;;;;;;25.66;51.43;99522.19;6552014;27;34999;-85
2022/08/15 06:43:31;;;;;;;11.93;4.97;;;;;;;25.64;51.71;99518.91;6551688;27;33696;-85
2022/08/15 06:46:40;;;;;;;8.63;4.80;;;;;;;25.92;51.20;99519.88;6550927;27;33654;-85
2022/08/15 06:49:57;;;;;;;10.38;4.65;;;;;;;26.20;50.37;99531.00;6552955;27;33916;-85
2022/08/15 06:53:31;;;;;;;53.45;8.25;;;;;;;26.37;49.85;99527.69;6557633;27;33891;-84
2022/08/15 06:56:33;;;;;;;10.80;5.55;;;;;;;26.58;49.05;99517.09;6524060;27;33839;-85
2022/08/15 07:00:09;;;;;;;6.65;4.87;;;;;;;26.71;48.72;99518.25;6553835;27;35262;-85
2022/08/15 07:03:59;;;;;;;11.15;4.90;;;;;;;26.96;48.16;99520.47;6536636;27;33903;-85
2022/08/15 07:07:30;;;;;;;7.57;4.65;;;;;;;27.05;48.01;99515.88;6565176;27;33696;-86
2022/08/15 07:11:01;;;;;;;7.97;5.20;;;;;;;27.16;47.86;99512.94;6564420;27;34460;-86
2022/08/15 07:14:38;;;;;;;8.90;4.95;;;;;;;27.52;46.91;99524.00;6551583;27;35445;-85
2022/08/15 07:17:50;;;;;;;11.57;4.80;;;;;;;27.74;46.05;99517.69;6551023;27;34029;-85
2022/08/15 07:21:06;;;;;;;12.23;5.50;;;;;;;27.68;46.16;99521.72;6531518;27;32089;-89
2022/08/15 07:24:16;;;;;;;6.57;4.70;;;;;;;27.94;45.44;99520.00;6551984;27;34681;-85
2022/08/15 07:27:39;;;;;;;21.62;5.90;;;;;;;28.10;44.24;99520.41;6532931;27;32528;-86
2022/08/15 07:31:04;;;;;;;8.00;4.75;;;;;;;27.76;45.38;99524.56;6552879;27;33856;-86
2022/08/15 07:34:22;;;;;;;16.30;4.68;;;;;;;27.66;46.03;99522.00;6533073;27;32432;-86
2022/08/15 07:37:34;;;;;;;6.95;4.72;;;;;;;27.79;45.67;99518.44;6552247;27;34436;-86
2022/08/15 07:40:49;;;;;;;8.60;4.87;;;;;;;27.85;45.73;99518.28;6552171;27;34284;-86
2022/08/15 07:44:19;;;;;;;7.50;5.07;;;;;;;27.98;45.34;99518.22;6533760;27;32233;-85
2022/08/15 07:47:28;;;;;;;7.12;5.03;;;;;;;28.48;44.18;99520.84;6565639;27;34579;-85
2022/08/15 07:50:43;;;;;;;9.43;4.62;;;;;;;28.51;43.12;99516.62;6555789;27;34202;-86
2022/08/15 07:53:58;;;;;;;5.65;4.68;;;;;;;28.44;44.28;99514.31;6552127;27;34583;-86
2022/08/15 07:57:06;;;;;;;8.82;4.90;;;;;;;28.53;43.65;99521.84;6552353;27;32934;-86
2022/08/15 08:00:15;;;;;;;6.50;4.80;;;;;;;28.56;42.80;99516.47;6552719;27;33719;-86
2022/08/15 08:03:42;;;;;;;6.05;4.43;;;;;;;28.46;42.89;99525.91;6532888;27;32883;-86
2022/08/15 08:06:56;;;;;;;6.32;4.37;;;;;;;28.63;42.46;99527.09;6532535;27;32311;-86
2022/08/15 08:10:43;;;;;;;8.55;4.45;;;;;;;28.95;42.44;99520.37;6551361;27;34846;-86
2022/08/15 08:14:21;;;;;;;8.30;4.37;;;;;;;29.19;42.08;99528.28;6518356;27;32651;-87
2022/08/15 08:17:57;;;;;;;8.23;4.68;;;;;;;29.42;41.40;99520.66;6549555;27;34568;-85
2022/08/15 08:21:06;;;;;;;70.82;8.82;;;;;;;29.75;40.26;99517.47;6550790;27;34611;-86
2022/08/15 08:24:47;;;;;;;6.85;4.35;;;;;;;29.72;40.29;99518.94;6531721;27;32774;-86
2022/08/15 08:28:27;;;;;;;31.17;6.85;;;;;;;29.69;39.51;99522.38;6531361;27;32599;-86
2022/08/15 08:31:49;;;;;;;11.98;4.45;;;;;;;29.74;40.19;99513.03;6552149;27;34113;-86
2022/08/15 08:35:15;;;;;;;8.43;4.30;;;;;;;29.97;39.43;99522.00;6533191;27;33801;-86
2022/08/15 08:38:26;;;;;;;8.65;4.35;;;;;;;30.02;39.22;99521.84;6552432;27;35117;-86
2022/08/15 08:42:22;;;;;;;7.72;4.60;;;;;;;30.46;39.50;99523.41;6551914;27;36106;-90
2022/08/15 08:45:41;;;;;;;5.65;4.32;;;;;;;30.73;38.20;99522.16;6533444;27;33370;-85
2022/08/15 08:49:16;;;;;;;7.00;4.75;;;;;;;30.42;37.83;99522.44;6531908;27;34248;-85
2022/08/15 08:52:32;;;;;;;14.15;4.30;;;;;;;30.17;37.65;99518.53;6532102;27;32661;-86
2022/08/15 08:55:51;;;;;;;10.57;4.30;;;;;;;30.33;38.28;99520.81;6531844;27;32714;-85
2022/08/15 08:59:02;;;;;;;7.72;4.07;;;;;;;30.65;36.67;99513.84;6552893;27;34690;-84
2022/08/15 09:02:17;;;;;;;5.12;4.05;;;;;;;30.28;37.20;99510.72;6551759;27;35625;-85
2022/08/15 09:05:41;;;;;;;4.47;3.90;;;;;;;30.33;37.03;99510.53;6552562;27;32015;-85
2022/08/15 09:09:17;;;;;;;7.70;4.20;;;;;;;30.21;36.74;99502.88;6552246;27;34523;-86
2022/08/15 09:15:58;;;;;;;7.68;3.90;;;;;;;30.71;35.93;99493.06;6531602;27;34013;-86
2022/08/15 09:19:29;;;;;;;4.18;3.65;;;;;;;30.71;35.52;99499.47;6551442;27;34645;-86
2022/08/15 09:22:32;;;;;;;4.50;3.70;;;;;;;30.61;35.55;99499.00;6531040;27;32858;-85
2022/08/15 09:25:47;;;;;;;8.77;4.07;;;;;;;30.67;35.69;99495.69;6551989;27;34219;-86
2022/08/15 09:29:06;;;;;;;5.32;4.00;;;;;;;30.65;35.80;99489.66;6551661;27;33883;-86
2022/08/15 09:32:26;;;;;;;8.52;3.90;;;;;;;30.63;36.16;99480.84;6552093;27;34400;-86
2022/08/15 09:35:49;;;;;;;4.75;3.72;;;;;;;30.88;36.01;99481.88;6552047;27;34101;-89
2022/08/15 09:39:21;;;;;;;4.05;3.60;;;;;;;31.26;34.35;99482.97;6535944;27;33994;-87
2022/08/15 09:42:40;;;;;;;5.22;3.70;;;;;;;31.40;32.74;99480.78;6546458;27;32760;-86
2022/08/15 09:46:28;;;;;;;11.93;3.97;;;;;;;31.38;32.19;99474.72;6535718;27;33137;-86
2022/08/15 09:49:56;;;;;;;6.45;3.33;;;;;;;31.38;32.58;99469.16;6551395;27;35333;-86
2022/08/15 09:53:17;;;;;;;4.73;3.50;;;;;;;31.59;31.95;99471.94;6551988;27;34142;-86
2022/08/15 09:56:25;;;;;;;4.45;3.30;;;;;;;31.61;31.95;99475.19;6535878;27;33427;-85
2022/08/15 09:59:35;;;;;;;6.28;3.87;;;;;;;31.60;31.57;99468.81;6561358;27;33872;-91
2022/08/15 10:02:49;;;;;;;4.43;3.62;;;;;;;31.49;32.50;99461.22;6555711;27;34192;-87
2022/08/15 10:06:02;;;;;;;4.12;3.47;;;;;;;31.60;32.59;99456.88;6555824;27;34234;-88
2022/08/15 10:09:33;;;;;;;4.35;3.33;;;;;;;31.92;31.95;99446.13;6545644;27;32473;-86
2022/08/15 10:12:37;;;;;;;4.70;3.75;;;;;;;32.02;32.19;99443.69;6569769;27;35347;-87
2022/08/15 10:15:46;;;;;;;4.65;3.50;;;;;;;32.27;31.65;99443.78;6570828;27;35308;-87
2022/08/15 10:18:55;;;;;;;10.88;4.37;;;;;;;32.20;31.87;99435.97;6535504;27;33235;-86
2022/08/15 10:22:03;;;;;;;6.43;3.90;;;;;;;32.35;31.72;99436.44;6531466;27;33829;-86
2022/08/15 10:25:20;;;;;;;4.57;3.67;;;;;;;32.19;32.58;99430.75;6530257;27;34999;-86
2022/08/15 10:28:25;;;;;;;4.95;3.62;;;;;;;32.70;30.46;99429.31;6550074;27;33577;-86
2022/08/15 10:31:52;;;;;;;5.57;3.53;;;;;;;32.54;30.25;99430.34;6531672;27;32603;-86
2022/08/15 10:35:23;;;;;;;8.75;3.97;;;;;;;32.74;30.19;99432.19;6533911;27;32669;-87
2022/08/15 10:38:29;;;;;;;3.90;3.42;;;;;;;32.95;29.49;99432.88;6560105;27;32331;-91
2022/08/15 10:42:08;;;;;;;7.80;3.50;;;;;;;32.97;29.09;99432.53;6578912;27;34215;-87
2022/08/15 10:45:51;;;;;;;10.10;4.15;;;;;;;33.51;28.75;99422.97;6579511;27;34019;-87
2022/08/15 10:49:08;;;;;;;4.20;2.95;;;;;;;33.66;28.40;99422.25;6579900;27;34572;-87
2022/08/15 10:52:33;;;;;;;10.57;3.60;;;;;;;33.86;27.86;99414.81;6579364;27;34053;-86
2022/08/15 10:55:40;;;;;;;3.90;3.25;;;;;;;34.30;27.16;99423.97;6582450;27;34018;-87
2022/08/15 10:59:06;;;;;;;14.38;3.72;;;;;;;34.57;26.13;99401.91;6558290;27;32503;-86
2022/08/15 11:02:20;;;;;;;5.68;3.45;;;;;;;35.02;25.74;99408.13;6578411;27;34639;-90
2022/08/15 11:05:40;;;;;;;3.87;3.28;;;;;;;35.43;25.49;99407.44;6558851;27;32369;-87
2022/08/15 11:08:54;;;;;;;3.83;2.97;;;;;;;35.30;25.64;99414.34;6578302;27;33580;-87
2022/08/15 11:12:04;;;;;;;5.43;3.37;;;;;;;35.44;25.47;99402.66;6578496;27;33619;-87
2022/08/15 11:15:23;;;;;;;;;;;;;;;35.92;24.74;99392.00;6558472;27;32651;-87
2022/08/15 11:18:35;;;;;;;6.32;3.30;;;;;;;36.54;24.69;99389.09;6578429;27;34406;-87
2022/08/15 11:21:43;;;;;;;8.25;3.80;;;;;;;36.49;24.24;99389.38;6577827;27;34381;-87
2022/08/15 11:25:02;;;;;;;20.20;3.95;;;;;;;36.88;24.00;99398.37;6578531;27;34846;-87
2022/08/15 11:28:12;;;;;;;5.75;3.35;;;;;;;37.22;24.14;99392.88;6559059;27;32460;-87
2022/08/15 11:31:53;;;;;;;3.67;3.00;;;;;;;37.64;22.59;99386.97;6559786;27;32518;-87
2022/08/15 11:35:30;;;;;;;11.88;3.17;;;;;;;38.14;21.89;99388.69;6558531;27;32360;-91
2022/08/15 11:38:36;;;;;;;21.42;3.67;;;;;;;37.43;22.38;99383.91;6562146;27;32455;-87
2022/08/15 11:41:43;;;;;;;47.42;5.80;;;;;;;38.35;21.02;99374.81;6597419;27;34309;-87
2022/08/15 11:45:07;;;;;;;3.33;2.53;;;;;;;39.31;20.10;99385.09;6599736;27;35252;-87
2022/08/15 11:48:13;;;;;;;137.37;9.07;;;;;;;40.49;18.99;99382.50;6593724;27;33925;-87
2022/08/15 11:51:16;;;;;;;;;;;;;;;41.61;17.89;99370.44;6593610;27;35121;-86
2022/08/15 11:54:23;;;;;;;146.90;12.48;;;;;;;42.55;16.49;99373.38;6582758;27;34679;-86
2022/08/15 11:57:42;;;;;;;8.43;2.67;;;;;;;42.96;16.44;99373.38;6563402;27;33022;-87
2022/08/15 12:00:57;;;;;;;17.92;3.70;;;;;;;43.30;15.59;99358.41;6580488;27;33989;-87
2022/08/15 12:04:07;;;;;;;2.67;2.47;;;;;;;43.62;15.23;99358.00;6579508;27;34003;-87
2022/08/15 12:07:30;;;;;;;6.50;2.80;;;;;;;43.07;15.82;99356.25;6581899;27;33994;-87
2022/08/15 12:10:39;;;;;;;41.25;6.25;;;;;;;43.80;15.31;99354.06;6560315;27;32325;-87
2022/08/15 12:14:11;;;;;;;3.25;2.95;;;;;;;43.37;15.87;99357.50;6580101;27;34911;-90
2022/08/15 12:17:29;;;;;;;38.10;4.93;;;;;;;43.18;15.70;99344.81;6580337;27;33941;-87
2022/08/15 12:20:59;;;;;;;3.15;2.80;;;;;;;43.65;15.51;99350.66;6559668;27;33315;-87
2022/08/15 12:24:02;;;;;;;3.10;2.85;;;;;;;44.57;14.62;99345.47;6564344;27;32364;-87
2022/08/15 12:27:07;;;;;;;7.18;2.47;;;;;;;43.62;15.40;99348.69;6576763;27;33947;-87
2022/08/15 12:30:18;;;;;;;4.20;2.75;;;;;;;44.65;14.61;99340.47;6582206;27;34508;-88
2022/08/15 12:33:31;;;;;;;8.38;2.45;;;;;;;44.21;14.73;99341.69;6559973;27;32477;-87
2022/08/15 12:36:37;;;;;;;83.00;6.45;;;;;;;44.92;14.25;99339.56;6579101;27;33657;-88
2022/08/15 12:40:08;;;;;;;10.43;2.67;;;;;;;44.67;14.57;99334.34;6579831;27;34019;-87
2022/08/15 12:43:33;;;;;;;30.77;4.07;;;;;;;45.05;14.03;99329.16;6559838;27;32854;-88
2022/08/15 12:46:35;;;;;;;127.05;10.98;;;;;;;45.11;14.01;99320.88;6580919;27;33980;-87
2022/08/15 12:49:39;;;;;;;9.30;2.47;;;;;;;45.25;13.59;99324.25;6560089;27;33751;-87
2022/08/15 12:52:49;;;;;;;20.17;3.00;;;;;;;46.50;12.85;99309.00;6581247;27;34628;-91
2022/08/15 12:55:59;;;;;;;41.03;5.43;;;;;;;46.89;12.44;99315.66;6590594;27;34011;-89
2022/08/15 12:59:05;;;;;;;9.45;2.58;;;;;;;47.60;12.14;99303.34;6578666;27;33760;-88
2022/08/15 13:02:11;;;;;;;9.98;2.80;;;;;;;47.07;12.03;99305.78;6579261;27;33651;-87
2022/08/15 13:05:35;;;;;;;10.13;2.78;;;;;;;46.66;12.25;99305.34;6577338;27;32698;-87
2022/08/15 13:08:58;;;;;;;23.83;2.70;;;;;;;46.68;12.12;99313.44;6560958;27;33821;-88
2022/08/15 13:12:01;;;;;;;39.00;4.72;;;;;;;46.79;11.40;99309.03;6580742;27;34630;-88
2022/08/15 13:15:21;;;;;;;11.48;2.50;;;;;;;47.58;11.02;99306.66;6588875;27;33774;-88
2022/08/15 13:18:29;;;;;;;30.67;2.95;;;;;;;47.69;10.79;99304.25;6596807;27;35388;-88
2022/08/15 13:25:00;;;;;;;5.85;2.28;;;;;;;47.99;10.98;99306.97;6579605;27;34711;-88
2022/08/15 13:28:04;;;;;;;2.33;2.03;;;;;;;48.66;11.08;99289.50;6579621;27;34794;-88
2022/08/15 13:31:19;;;;;;;17.12;3.40;;;;;;;48.75;10.87;99286.72;6579101;27;34145;-88
2022/08/15 13:34:31;;;;;;;3.00;2.45;;;;;;;48.23;11.26;99287.38;6559478;27;33686;-88
2022/08/15 13:37:50;;;;;;;4.05;2.50;;;;;;;47.54;11.56;99285.19;6580332;27;34113;-88
2022/08/15 13:41:04;;;;;;;4.85;2.12;;;;;;;47.31;11.90;99270.03;6579769;27;34911;-88
2022/08/15 13:44:07;;;;;;;2.22;1.92;;;;;;;47.07;12.08;99275.28;6585195;27;34427;-89
2022/08/15 13:51:00;;;;;;;2.53;2.30;;;;;;;47.76;11.84;99262.47;6578984;27;34708;-87
2022/08/15 13:54:04;;;;;;;4.12;2.30;;;;;;;47.33;12.13;99261.00;6578298;27;33873;-87
2022/08/15 13:57:27;;;;;;;14.10;2.70;;;;;;;47.16;12.18;99261.13;6578440;27;33574;-87
2022/08/15 14:00:31;;;;;;;26.15;3.75;;;;;;;46.46;12.73;99257.06;6578554;27;34670;-87
2022/08/15 14:04:09;;;;;;;4.78;2.33;;;;;;;46.32;12.86;99261.09;6558553;27;33610;-87
2022/08/15 14:07:15;;;;;;;3.58;2.45;;;;;;;45.86;12.91;99265.12;6558250;27;32351;-88
2022/08/15 14:10:27;;;;;;;4.85;3.85;;;;;;;45.29;13.54;99255.16;6578987;27;34686;-88
2022/08/15 14:13:50;;;;;;;2.62;2.28;;;;;;;44.49;14.10;99260.88;6581175;27;34456;-88
2022/08/15 14:16:55;;;;;;;2.53;2.33;;;;;;;42.82;15.05;99265.12;6586504;27;33755;-88
2022/08/15 14:20:00;;;;;;;;;;;;;;;39.98;17.33;99254.00;6570590;27;32671;-87
2022/08/15 14:23:05;;;;;;;4.97;2.78;;;;;;;39.10;18.90;99257.06;6598182;27;35623;-87
2022/08/15 14:26:11;;;;;;;3.55;2.45;;;;;;;38.28;19.95;99265.91;6590194;27;34921;-87
2022/08/15 14:29:41;;;;;;;7.57;2.60;;;;;;;37.82;21.11;99276.75;6559470;27;32525;-86
2022/08/15 14:33:08;;;;;;;4.87;2.67;;;;;;;36.89;24.96;99264.56;6579094;27;34488;-87
2022/08/15 14:36:11;;;;;;;9.20;3.00;;;;;;;36.23;22.47;99262.03;6583462;27;34313;-86
2022/08/15 14:39:34;;;;;;;4.15;2.40;;;;;;;35.96;22.65;99252.00;6579299;27;34760;-87
2022/08/15 14:42:43;;;;;;;3.30;3.00;;;;;;;35.56;21.09;99254.13;6566311;27;33561;-87
2022/08/15 14:45:49;;;;;;;3.35;2.45;;;;;;;35.33;21.83;99256.88;6558918;27;34203;-87
2022/08/15 14:49:13;;;;;;;3.65;2.30;;;;;;;35.46;20.25;99254.72;6558957;27;32394;-87
2022/08/15 14:52:18;;;;;;;3.30;2.47;;;;;;;35.37;20.78;99251.38;6578362;27;34459;-87
2022/08/15 14:55:31;;;;;;;3.90;2.58;;;;;;;35.11;20.98;99247.28;6579765;27;34681;-91
2022/08/15 14:58:35;;;;;;;14.00;3.12;;;;;;;34.58;22.26;99252.56;6578897;27;33881;-87
2022/08/15 15:01:49;;;;;;;3.10;2.80;;;;;;;34.29;22.65;99260.28;6577858;27;34647;-87
2022/08/15 15:04:58;;;;;;;8.93;5.00;;;;;;;34.04;22.93;99261.69;6558743;27;32654;-87
2022/08/15 15:08:03;;;;;;;5.12;2.58;;;;;;;33.97;24.07;99265.09;6578364;27;33845;-87
2022/08/15 15:11:23;;;;;;;3.10;2.80;;;;;;;33.94;24.29;99262.22;6584392;27;33751;-86
2022/08/15 15:14:27;;;;;;;2.67;2.47;;;;;;;33.81;23.93;99259.50;6583628;27;34417;-87
2022/08/15 15:17:31;;;;;;;3.20;2.75;;;;;;;33.60;24.55;99267.34;6559064;27;33689;-87
2022/08/15 15:20:36;;;;;;;5.62;3.00;;;;;;;33.24;25.13;99263.59;6578865;27;34070;-86
2022/08/15 15:23:49;;;;;;;2.90;2.70;;;;;;;32.97;25.73;99265.22;6579593;27;34171;-87
2022/08/15 15:26:53;;;;;;;2.95;2.45;;;;;;;32.68;26.96;99264.38;6580230;27;33852;-87
2022/08/15 15:29:58;;;;;;;3.75;3.00;;;;;;;32.59;27.30;99258.16;6579182;27;34008;-86
